sensor_id;sensor_type;location;lat;lon;timestamp;P1;durP1;ratioP1;P2;durP2;ratioP2
49710;SDS011;35602;44.534;18.696;2022-10-16T00:04:40;36.38;;;28.45;;
49710;SDS011;35602;44.534;18.696;2022-10-16T00:09:41;36.25;;;27.87;;
49710;SDS011;35602;44.534;18.696;2022-10-16T00:14:42;34.80;;;28.30;;
49710;SDS011;35602;44.534;18.696;2022-10-16T00:19:44;35.30;;;27.40;;
49710;SDS011;35602;44.534;18.696;2022-10-16T00:24:44;32.88;;;26.42;;
49710;SDS011;35602;44.534;18.696;2022-10-16T00:29:49;34.13;;;27.80;;
49710;SDS011;35602;44.534;18.696;2022-10-16T00:34:51;35.40;;;27.23;;
49710;SDS011;35602;44.534;18.696;2022-10-16T00:39:54;35.55;;;26.40;;
49710;SDS011;35602;44.534;18.696;2022-10-16T00:44:56;33.90;;;27.23;;
49710;SDS011;35602;44.534;18.696;2022-10-16T00:49:59;32.30;;;25.55;;
49710;SDS011;35602;44.534;18.696;2022-10-16T00:55:33;31.08;;;25.60;;
49710;SDS011;35602;44.534;18.696;2022-10-16T01:00:34;30.23;;;25.05;;
49710;SDS011;35602;44.534;18.696;2022-10-16T01:05:39;31.98;;;24.87;;
49710;SDS011;35602;44.534;18.696;2022-10-16T01:18:08;32.47;;;25.40;;
49710;SDS011;35602;44.534;18.696;2022-10-16T01:28:57;32.33;;;25.35;;
49710;SDS011;35602;44.534;18.696;2022-10-16T01:34:20;29.65;;;24.20;;
49710;SDS011;35602;44.534;18.696;2022-10-16T01:39:28;30.30;;;24.12;;
49710;SDS011;35602;44.534;18.696;2022-10-16T01:44:33;29.12;;;23.00;;
49710;SDS011;35602;44.534;18.696;2022-10-16T01:49:36;29.02;;;23.65;;
49710;SDS011;35602;44.534;18.696;2022-10-16T01:54:40;31.00;;;24.00;;
49710;SDS011;35602;44.534;18.696;2022-10-16T01:59:44;29.35;;;23.02;;
49710;SDS011;35602;44.534;18.696;2022-10-16T02:04:49;28.65;;;22.35;;
49710;SDS011;35602;44.534;18.696;2022-10-16T02:09:55;27.73;;;22.50;;
49710;SDS011;35602;44.534;18.696;2022-10-16T02:14:59;31.12;;;23.40;;
49710;SDS011;35602;44.534;18.696;2022-10-16T02:20:00;28.45;;;23.30;;
49710;SDS011;35602;44.534;18.696;2022-10-16T02:25:05;31.08;;;22.98;;
49710;SDS011;35602;44.534;18.696;2022-10-16T02:36:20;27.50;;;21.65;;
49710;SDS011;35602;44.534;18.696;2022-10-16T02:41:22;29.27;;;22.75;;
49710;SDS011;35602;44.534;18.696;2022-10-16T02:46:24;27.25;;;21.25;;
49710;SDS011;35602;44.534;18.696;2022-10-16T02:51:25;26.20;;;21.12;;
49710;SDS011;35602;44.534;18.696;2022-10-16T02:56:26;26.52;;;21.27;;
49710;SDS011;35602;44.534;18.696;2022-10-16T03:01:27;26.42;;;21.17;;
49710;SDS011;35602;44.534;18.696;2022-10-16T03:06:28;26.17;;;21.80;;
49710;SDS011;35602;44.534;18.696;2022-10-16T03:11:28;24.35;;;20.12;;
49710;SDS011;35602;44.534;18.696;2022-10-16T03:16:32;25.23;;;20.90;;
49710;SDS011;35602;44.534;18.696;2022-10-16T03:21:33;21.70;;;19.20;;
49710;SDS011;35602;44.534;18.696;2022-10-16T03:26:34;22.37;;;18.73;;
49710;SDS011;35602;44.534;18.696;2022-10-16T03:31:34;24.50;;;19.92;;
49710;SDS011;35602;44.534;18.696;2022-10-16T03:36:35;22.75;;;18.98;;
49710;SDS011;35602;44.534;18.696;2022-10-16T03:41:36;23.80;;;18.95;;
49710;SDS011;35602;44.534;18.696;2022-10-16T03:46:37;23.38;;;19.05;;
49710;SDS011;35602;44.534;18.696;2022-10-16T03:51:38;22.20;;;19.02;;
49710;SDS011;35602;44.534;18.696;2022-10-16T03:56:41;23.23;;;18.58;;
49710;SDS011;35602;44.534;18.696;2022-10-16T04:01:42;21.37;;;18.17;;
49710;SDS011;35602;44.534;18.696;2022-10-16T04:06:43;23.33;;;19.12;;
49710;SDS011;35602;44.534;18.696;2022-10-16T04:11:44;22.00;;;17.73;;
49710;SDS011;35602;44.534;18.696;2022-10-16T04:16:45;22.50;;;18.42;;
49710;SDS011;35602;44.534;18.696;2022-10-16T04:21:46;19.60;;;16.90;;
49710;SDS011;35602;44.534;18.696;2022-10-16T04:26:46;22.75;;;18.08;;
49710;SDS011;35602;44.534;18.696;2022-10-16T04:31:47;23.00;;;18.23;;
49710;SDS011;35602;44.534;18.696;2022-10-16T04:36:48;19.83;;;16.95;;
49710;SDS011;35602;44.534;18.696;2022-10-16T04:41:49;21.75;;;17.87;;
49710;SDS011;35602;44.534;18.696;2022-10-16T04:46:50;21.67;;;16.92;;
49710;SDS011;35602;44.534;18.696;2022-10-16T04:51:51;19.98;;;16.80;;
49710;SDS011;35602;44.534;18.696;2022-10-16T04:56:52;19.48;;;16.33;;
49710;SDS011;35602;44.534;18.696;2022-10-16T05:01:53;20.12;;;17.12;;
49710;SDS011;35602;44.534;18.696;2022-10-16T05:06:54;21.55;;;17.40;;
49710;SDS011;35602;44.534;18.696;2022-10-16T05:11:57;20.42;;;16.90;;
49710;SDS011;35602;44.534;18.696;2022-10-16T05:16:59;21.45;;;16.60;;
49710;SDS011;35602;44.534;18.696;2022-10-16T05:22:00;21.08;;;16.92;;
49710;SDS011;35602;44.534;18.696;2022-10-16T05:27:01;18.67;;;15.75;;
49710;SDS011;35602;44.534;18.696;2022-10-16T05:32:05;20.23;;;15.70;;
49710;SDS011;35602;44.534;18.696;2022-10-16T05:37:06;19.75;;;15.98;;
49710;SDS011;35602;44.534;18.696;2022-10-16T05:42:07;18.70;;;15.70;;
49710;SDS011;35602;44.534;18.696;2022-10-16T05:47:08;20.85;;;16.60;;
49710;SDS011;35602;44.534;18.696;2022-10-16T05:52:10;20.20;;;15.85;;
49710;SDS011;35602;44.534;18.696;2022-10-16T05:57:11;19.12;;;15.82;;
49710;SDS011;35602;44.534;18.696;2022-10-16T06:02:15;18.85;;;16.17;;
49710;SDS011;35602;44.534;18.696;2022-10-16T06:07:16;20.08;;;16.27;;
49710;SDS011;35602;44.534;18.696;2022-10-16T06:12:19;18.58;;;16.58;;
49710;SDS011;35602;44.534;18.696;2022-10-16T06:17:20;20.35;;;15.70;;
49710;SDS011;35602;44.534;18.696;2022-10-16T06:22:21;19.25;;;15.77;;
49710;SDS011;35602;44.534;18.696;2022-10-16T06:27:22;17.80;;;15.38;;
49710;SDS011;35602;44.534;18.696;2022-10-16T06:32:23;18.67;;;15.60;;
49710;SDS011;35602;44.534;18.696;2022-10-16T06:37:23;19.17;;;15.55;;
49710;SDS011;35602;44.534;18.696;2022-10-16T06:42:25;19.52;;;15.77;;
49710;SDS011;35602;44.534;18.696;2022-10-16T06:47:25;19.27;;;15.88;;
49710;SDS011;35602;44.534;18.696;2022-10-16T06:52:30;19.90;;;16.58;;
49710;SDS011;35602;44.534;18.696;2022-10-16T06:57:31;20.15;;;15.40;;
49710;SDS011;35602;44.534;18.696;2022-10-16T07:02:31;18.87;;;15.93;;
49710;SDS011;35602;44.534;18.696;2022-10-16T07:07:32;18.45;;;15.32;;
49710;SDS011;35602;44.534;18.696;2022-10-16T07:12:33;19.33;;;15.85;;
49710;SDS011;35602;44.534;18.696;2022-10-16T07:17:36;18.25;;;15.52;;
49710;SDS011;35602;44.534;18.696;2022-10-16T07:22:37;20.50;;;16.27;;
49710;SDS011;35602;44.534;18.696;2022-10-16T07:27:38;20.10;;;15.98;;
49710;SDS011;35602;44.534;18.696;2022-10-16T07:32:39;19.65;;;16.00;;
49710;SDS011;35602;44.534;18.696;2022-10-16T07:37:43;19.70;;;15.98;;
49710;SDS011;35602;44.534;18.696;2022-10-16T07:42:45;17.73;;;15.80;;
49710;SDS011;35602;44.534;18.696;2022-10-16T07:47:46;19.33;;;15.85;;
49710;SDS011;35602;44.534;18.696;2022-10-16T07:52:47;18.40;;;15.68;;
49710;SDS011;35602;44.534;18.696;2022-10-16T07:57:48;19.35;;;16.02;;
49710;SDS011;35602;44.534;18.696;2022-10-16T08:02:48;20.12;;;17.35;;
49710;SDS011;35602;44.534;18.696;2022-10-16T08:07:49;22.25;;;17.40;;
49710;SDS011;35602;44.534;18.696;2022-10-16T08:12:50;21.50;;;17.37;;
49710;SDS011;35602;44.534;18.696;2022-10-16T08:17:55;21.45;;;17.65;;
49710;SDS011;35602;44.534;18.696;2022-10-16T08:22:57;22.85;;;18.15;;
49710;SDS011;35602;44.534;18.696;2022-10-16T08:27:58;24.25;;;18.52;;
49710;SDS011;35602;44.534;18.696;2022-10-16T08:32:59;23.12;;;19.17;;
49710;SDS011;35602;44.534;18.696;2022-10-16T08:38:02;26.65;;;19.45;;
49710;SDS011;35602;44.534;18.696;2022-10-16T08:52:15;25.85;;;20.12;;
49710;SDS011;35602;44.534;18.696;2022-10-16T08:57:17;24.45;;;20.40;;
49710;SDS011;35602;44.534;18.696;2022-10-16T09:15:32;25.27;;;20.35;;
49710;SDS011;35602;44.534;18.696;2022-10-16T09:21:04;27.92;;;21.75;;
49710;SDS011;35602;44.534;18.696;2022-10-16T09:26:42;27.02;;;20.73;;
49710;SDS011;35602;44.534;18.696;2022-10-16T09:31:45;26.67;;;21.33;;
49710;SDS011;35602;44.534;18.696;2022-10-16T09:36:46;26.85;;;21.73;;
49710;SDS011;35602;44.534;18.696;2022-10-16T09:41:47;27.15;;;21.33;;
49710;SDS011;35602;44.534;18.696;2022-10-16T09:46:49;25.42;;;20.85;;
49710;SDS011;35602;44.534;18.696;2022-10-16T09:52:04;29.23;;;21.58;;
49710;SDS011;35602;44.534;18.696;2022-10-16T09:57:15;28.48;;;22.52;;
49710;SDS011;35602;44.534;18.696;2022-10-16T10:02:17;26.40;;;21.10;;
49710;SDS011;35602;44.534;18.696;2022-10-16T10:07:24;26.83;;;20.48;;
49710;SDS011;35602;44.534;18.696;2022-10-16T10:12:44;27.42;;;21.80;;
49710;SDS011;35602;44.534;18.696;2022-10-16T10:17:46;28.33;;;21.65;;
49710;SDS011;35602;44.534;18.696;2022-10-16T10:22:51;25.83;;;20.35;;
49710;SDS011;35602;44.534;18.696;2022-10-16T10:42:05;25.67;;;20.70;;
49710;SDS011;35602;44.534;18.696;2022-10-16T10:47:55;26.87;;;20.95;;
49710;SDS011;35602;44.534;18.696;2022-10-16T10:55:43;27.08;;;21.65;;
49710;SDS011;35602;44.534;18.696;2022-10-16T11:01:16;28.25;;;21.35;;
49710;SDS011;35602;44.534;18.696;2022-10-16T11:09:00;28.15;;;21.25;;
49710;SDS011;35602;44.534;18.696;2022-10-16T11:14:26;26.60;;;21.08;;
49710;SDS011;35602;44.534;18.696;2022-10-16T11:19:52;28.48;;;20.73;;
49710;SDS011;35602;44.534;18.696;2022-10-16T11:25:42;26.95;;;20.88;;
49710;SDS011;35602;44.534;18.696;2022-10-16T11:31:05;25.27;;;21.45;;
49710;SDS011;35602;44.534;18.696;2022-10-16T11:36:25;26.83;;;21.62;;
49710;SDS011;35602;44.534;18.696;2022-10-16T11:41:37;27.27;;;20.60;;
49710;SDS011;35602;44.534;18.696;2022-10-16T11:46:55;26.60;;;21.40;;
49710;SDS011;35602;44.534;18.696;2022-10-16T11:52:13;27.52;;;21.48;;
49710;SDS011;35602;44.534;18.696;2022-10-16T11:57:35;25.52;;;20.77;;
49710;SDS011;35602;44.534;18.696;2022-10-16T12:02:45;27.27;;;20.77;;
49710;SDS011;35602;44.534;18.696;2022-10-16T12:07:56;28.05;;;22.02;;
49710;SDS011;35602;44.534;18.696;2022-10-16T12:13:32;27.20;;;21.02;;
49710;SDS011;35602;44.534;18.696;2022-10-16T12:18:37;28.73;;;21.90;;
49710;SDS011;35602;44.534;18.696;2022-10-16T12:23:51;27.08;;;21.50;;
49710;SDS011;35602;44.534;18.696;2022-10-16T12:28:54;27.87;;;21.98;;
49710;SDS011;35602;44.534;18.696;2022-10-16T12:34:01;28.33;;;21.90;;
49710;SDS011;35602;44.534;18.696;2022-10-16T12:39:03;25.15;;;21.48;;
49710;SDS011;35602;44.534;18.696;2022-10-16T12:44:03;25.85;;;21.17;;
49710;SDS011;35602;44.534;18.696;2022-10-16T12:55:23;26.12;;;21.80;;
49710;SDS011;35602;44.534;18.696;2022-10-16T13:00:40;29.98;;;23.30;;
49710;SDS011;35602;44.534;18.696;2022-10-16T13:06:25;27.20;;;21.65;;
49710;SDS011;35602;44.534;18.696;2022-10-16T13:13:12;25.25;;;21.30;;
49710;SDS011;35602;44.534;18.696;2022-10-16T13:27:24;26.25;;;21.40;;
49710;SDS011;35602;44.534;18.696;2022-10-16T13:33:02;27.95;;;21.80;;
49710;SDS011;35602;44.534;18.696;2022-10-16T13:38:16;26.95;;;20.90;;
49710;SDS011;35602;44.534;18.696;2022-10-16T13:43:20;25.70;;;21.27;;
49710;SDS011;35602;44.534;18.696;2022-10-16T13:48:23;26.37;;;21.12;;
49710;SDS011;35602;44.534;18.696;2022-10-16T13:53:24;25.17;;;21.42;;
49710;SDS011;35602;44.534;18.696;2022-10-16T13:58:25;24.58;;;20.40;;
49710;SDS011;35602;44.534;18.696;2022-10-16T14:03:27;24.92;;;22.05;;
49710;SDS011;35602;44.534;18.696;2022-10-16T14:08:29;24.95;;;20.70;;
49710;SDS011;35602;44.534;18.696;2022-10-16T14:13:33;25.33;;;21.52;;
49710;SDS011;35602;44.534;18.696;2022-10-16T14:18:37;26.48;;;20.88;;
49710;SDS011;35602;44.534;18.696;2022-10-16T14:23:40;25.05;;;21.87;;
49710;SDS011;35602;44.534;18.696;2022-10-16T14:28:42;25.95;;;20.48;;
49710;SDS011;35602;44.534;18.696;2022-10-16T14:33:44;25.05;;;21.27;;
49710;SDS011;35602;44.534;18.696;2022-10-16T14:38:55;23.87;;;20.60;;
49710;SDS011;35602;44.534;18.696;2022-10-16T14:44:13;24.17;;;21.12;;
49710;SDS011;35602;44.534;18.696;2022-10-16T14:49:16;25.05;;;21.23;;
49710;SDS011;35602;44.534;18.696;2022-10-16T14:54:20;23.87;;;20.37;;
49710;SDS011;35602;44.534;18.696;2022-10-16T15:04:46;21.87;;;19.20;;
49710;SDS011;35602;44.534;18.696;2022-10-16T15:09:48;24.92;;;20.92;;
49710;SDS011;35602;44.534;18.696;2022-10-16T15:14:48;23.02;;;20.55;;
49710;SDS011;35602;44.534;18.696;2022-10-16T15:19:50;27.37;;;21.58;;
49710;SDS011;35602;44.534;18.696;2022-10-16T15:24:51;23.75;;;20.83;;
49710;SDS011;35602;44.534;18.696;2022-10-16T15:29:52;21.60;;;19.20;;
49710;SDS011;35602;44.534;18.696;2022-10-16T15:34:53;23.75;;;19.58;;
49710;SDS011;35602;44.534;18.696;2022-10-16T15:39:53;22.20;;;19.80;;
49710;SDS011;35602;44.534;18.696;2022-10-16T15:44:54;23.20;;;19.83;;
49710;SDS011;35602;44.534;18.696;2022-10-16T15:49:55;23.85;;;19.55;;
49710;SDS011;35602;44.534;18.696;2022-10-16T15:54:56;22.77;;;19.85;;
49710;SDS011;35602;44.534;18.696;2022-10-16T15:59:57;22.15;;;19.48;;
49710;SDS011;35602;44.534;18.696;2022-10-16T16:04:57;23.87;;;19.75;;
49710;SDS011;35602;44.534;18.696;2022-10-16T16:09:58;22.73;;;19.92;;
49710;SDS011;35602;44.534;18.696;2022-10-16T16:14:59;23.90;;;20.37;;
49710;SDS011;35602;44.534;18.696;2022-10-16T16:20:00;21.25;;;18.83;;
49710;SDS011;35602;44.534;18.696;2022-10-16T16:25:02;22.73;;;18.80;;
49710;SDS011;35602;44.534;18.696;2022-10-16T16:30:03;24.17;;;19.83;;
49710;SDS011;35602;44.534;18.696;2022-10-16T16:35:07;24.42;;;21.30;;
49710;SDS011;35602;44.534;18.696;2022-10-16T16:40:11;23.45;;;19.45;;
49710;SDS011;35602;44.534;18.696;2022-10-16T16:45:11;22.92;;;19.90;;
49710;SDS011;35602;44.534;18.696;2022-10-16T16:50:12;23.92;;;20.45;;
49710;SDS011;35602;44.534;18.696;2022-10-16T16:55:13;24.50;;;21.10;;
49710;SDS011;35602;44.534;18.696;2022-10-16T17:00:14;23.62;;;20.37;;
49710;SDS011;35602;44.534;18.696;2022-10-16T17:05:15;25.83;;;21.60;;
49710;SDS011;35602;44.534;18.696;2022-10-16T17:10:16;27.13;;;22.17;;
49710;SDS011;35602;44.534;18.696;2022-10-16T17:15:17;30.10;;;22.55;;
49710;SDS011;35602;44.534;18.696;2022-10-16T17:20:18;27.48;;;23.40;;
49710;SDS011;35602;44.534;18.696;2022-10-16T17:25:18;30.20;;;24.02;;
49710;SDS011;35602;44.534;18.696;2022-10-16T17:30:19;28.83;;;23.87;;
49710;SDS011;35602;44.534;18.696;2022-10-16T17:35:23;28.15;;;24.90;;
49710;SDS011;35602;44.534;18.696;2022-10-16T17:40:24;32.00;;;26.52;;
49710;SDS011;35602;44.534;18.696;2022-10-16T17:45:25;32.38;;;27.33;;
49710;SDS011;35602;44.534;18.696;2022-10-16T17:50:26;32.90;;;27.08;;
49710;SDS011;35602;44.534;18.696;2022-10-16T17:55:27;33.00;;;28.30;;
49710;SDS011;35602;44.534;18.696;2022-10-16T18:00:28;37.17;;;29.52;;
49710;SDS011;35602;44.534;18.696;2022-10-16T18:05:29;35.42;;;30.25;;
49710;SDS011;35602;44.534;18.696;2022-10-16T18:10:30;38.47;;;30.80;;
49710;SDS011;35602;44.534;18.696;2022-10-16T18:15:30;38.90;;;30.02;;
49710;SDS011;35602;44.534;18.696;2022-10-16T18:20:31;37.17;;;30.62;;
49710;SDS011;35602;44.534;18.696;2022-10-16T18:25:32;37.42;;;31.33;;
49710;SDS011;35602;44.534;18.696;2022-10-16T18:30:33;37.92;;;31.98;;
49710;SDS011;35602;44.534;18.696;2022-10-16T18:35:35;42.60;;;33.55;;
49710;SDS011;35602;44.534;18.696;2022-10-16T18:40:36;42.22;;;33.58;;
49710;SDS011;35602;44.534;18.696;2022-10-16T18:45:37;42.90;;;34.78;;
49710;SDS011;35602;44.534;18.696;2022-10-16T18:50:38;41.95;;;34.05;;
49710;SDS011;35602;44.534;18.696;2022-10-16T18:55:42;43.78;;;35.90;;
49710;SDS011;35602;44.534;18.696;2022-10-16T19:00:43;44.72;;;36.13;;
49710;SDS011;35602;44.534;18.696;2022-10-16T19:05:46;47.40;;;37.58;;
49710;SDS011;35602;44.534;18.696;2022-10-16T19:10:47;44.72;;;36.72;;
49710;SDS011;35602;44.534;18.696;2022-10-16T19:15:48;45.47;;;36.53;;
49710;SDS011;35602;44.534;18.696;2022-10-16T19:20:48;47.47;;;37.40;;
49710;SDS011;35602;44.534;18.696;2022-10-16T19:25:49;49.33;;;38.92;;
49710;SDS011;35602;44.534;18.696;2022-10-16T19:30:50;48.50;;;40.05;;
49710;SDS011;35602;44.534;18.696;2022-10-16T19:35:51;46.47;;;37.83;;
49710;SDS011;35602;44.534;18.696;2022-10-16T19:40:52;48.03;;;37.45;;
49710;SDS011;35602;44.534;18.696;2022-10-16T19:45:52;45.97;;;38.13;;
49710;SDS011;35602;44.534;18.696;2022-10-16T19:50:53;47.45;;;39.95;;
49710;SDS011;35602;44.534;18.696;2022-10-16T19:55:54;47.13;;;38.42;;
49710;SDS011;35602;44.534;18.696;2022-10-16T20:00:56;48.90;;;38.35;;
49710;SDS011;35602;44.534;18.696;2022-10-16T20:05:57;47.58;;;39.25;;
49710;SDS011;35602;44.534;18.696;2022-10-16T20:16:09;48.22;;;39.00;;
49710;SDS011;35602;44.534;18.696;2022-10-16T20:21:12;47.17;;;38.35;;
49710;SDS011;35602;44.534;18.696;2022-10-16T20:26:15;48.55;;;38.05;;
49710;SDS011;35602;44.534;18.696;2022-10-16T20:31:25;49.28;;;40.33;;
49710;SDS011;35602;44.534;18.696;2022-10-16T20:36:27;47.35;;;39.35;;
49710;SDS011;35602;44.534;18.696;2022-10-16T20:41:29;47.33;;;39.00;;
49710;SDS011;35602;44.534;18.696;2022-10-16T20:46:30;46.33;;;38.40;;
49710;SDS011;35602;44.534;18.696;2022-10-16T20:51:31;50.28;;;40.00;;
49710;SDS011;35602;44.534;18.696;2022-10-16T20:56:33;49.08;;;39.95;;
49710;SDS011;35602;44.534;18.696;2022-10-16T21:01:35;50.15;;;39.95;;
49710;SDS011;35602;44.534;18.696;2022-10-16T21:06:36;47.72;;;40.10;;
49710;SDS011;35602;44.534;18.696;2022-10-16T21:11:38;51.67;;;41.00;;
49710;SDS011;35602;44.534;18.696;2022-10-16T21:16:39;48.05;;;38.40;;
49710;SDS011;35602;44.534;18.696;2022-10-16T21:21:40;47.38;;;39.10;;
49710;SDS011;35602;44.534;18.696;2022-10-16T21:26:41;48.83;;;39.38;;
49710;SDS011;35602;44.534;18.696;2022-10-16T21:31:42;45.70;;;39.03;;
49710;SDS011;35602;44.534;18.696;2022-10-16T21:36:42;50.90;;;39.83;;
49710;SDS011;35602;44.534;18.696;2022-10-16T21:41:44;47.92;;;39.60;;
49710;SDS011;35602;44.534;18.696;2022-10-16T21:46:49;48.10;;;38.38;;
49710;SDS011;35602;44.534;18.696;2022-10-16T21:51:50;48.25;;;39.58;;
49710;SDS011;35602;44.534;18.696;2022-10-16T21:56:50;44.20;;;36.75;;
49710;SDS011;35602;44.534;18.696;2022-10-16T22:01:53;45.55;;;37.72;;
49710;SDS011;35602;44.534;18.696;2022-10-16T22:06:54;46.90;;;37.90;;
49710;SDS011;35602;44.534;18.696;2022-10-16T22:11:55;46.90;;;38.03;;
49710;SDS011;35602;44.534;18.696;2022-10-16T22:16:55;47.85;;;38.20;;
49710;SDS011;35602;44.534;18.696;2022-10-16T22:21:56;44.83;;;37.40;;
49710;SDS011;35602;44.534;18.696;2022-10-16T22:26:59;44.05;;;37.45;;
49710;SDS011;35602;44.534;18.696;2022-10-16T22:32:00;46.03;;;37.55;;
49710;SDS011;35602;44.534;18.696;2022-10-16T22:37:01;45.38;;;36.80;;
49710;SDS011;35602;44.534;18.696;2022-10-16T22:42:01;45.92;;;37.40;;
49710;SDS011;35602;44.534;18.696;2022-10-16T22:47:02;42.47;;;35.28;;
49710;SDS011;35602;44.534;18.696;2022-10-16T22:52:03;43.15;;;35.20;;
49710;SDS011;35602;44.534;18.696;2022-10-16T22:57:04;42.62;;;35.63;;
49710;SDS011;35602;44.534;18.696;2022-10-16T23:02:05;42.62;;;36.33;;
49710;SDS011;35602;44.534;18.696;2022-10-16T23:07:06;41.25;;;35.38;;
49710;SDS011;35602;44.534;18.696;2022-10-16T23:12:06;44.40;;;36.58;;
49710;SDS011;35602;44.534;18.696;2022-10-16T23:17:10;41.92;;;34.65;;
49710;SDS011;35602;44.534;18.696;2022-10-16T23:22:11;41.05;;;34.42;;
49710;SDS011;35602;44.534;18.696;2022-10-16T23:27:12;41.75;;;35.35;;
49710;SDS011;35602;44.534;18.696;2022-10-16T23:32:12;42.58;;;33.60;;
49710;SDS011;35602;44.534;18.696;2022-10-16T23:37:13;41.47;;;34.65;;
49710;SDS011;35602;44.534;18.696;2022-10-16T23:42:14;40.75;;;34.45;;
49710;SDS011;35602;44.534;18.696;2022-10-16T23:47:15;41.28;;;34.05;;
49710;SDS011;35602;44.534;18.696;2022-10-16T23:52:16;41.50;;;34.55;;
49710;SDS011;35602;44.534;18.696;2022-10-16T23:57:18;42.28;;;35.33;;
